sensor_id;sensor_type;location;lat;lon;timestamp;temperature;humidity
65207;SHT31;58477;48.072;11.970;2023-05-10T00:00:04;12.70;96.35
65207;SHT31;58477;48.072;11.970;2023-05-10T00:02:38;12.66;96.63
65207;SHT31;58477;48.072;11.970;2023-05-10T00:05:04;12.67;96.78
65207;SHT31;58477;48.072;11.970;2023-05-10T00:07:30;12.67;96.54
65207;SHT31;58477;48.072;11.970;2023-05-10T00:09:55;12.70;96.69
65207;SHT31;58477;48.072;11.970;2023-05-10T00:12:21;12.67;96.86
65207;SHT31;58477;48.072;11.970;2023-05-10T00:14:46;12.66;96.94
65207;SHT31;58477;48.072;11.970;2023-05-10T00:17:11;12.66;96.87
65207;SHT31;58477;48.072;11.970;2023-05-10T00:19:37;12.69;96.56
65207;SHT31;58477;48.072;11.970;2023-05-10T00:22:02;12.69;96.47
65207;SHT31;58477;48.072;11.970;2023-05-10T00:24:28;12.73;96.73
65207;SHT31;58477;48.072;11.970;2023-05-10T00:26:53;12.70;96.94
65207;SHT31;58477;48.072;11.970;2023-05-10T00:29:18;12.72;96.98
65207;SHT31;58477;48.072;11.970;2023-05-10T00:31:44;12.69;97.50
65207;SHT31;58477;48.072;11.970;2023-05-10T00:34:10;12.66;97.14
65207;SHT31;58477;48.072;11.970;2023-05-10T00:36:36;12.66;97.25
65207;SHT31;58477;48.072;11.970;2023-05-10T00:39:01;12.72;97.13
65207;SHT31;58477;48.072;11.970;2023-05-10T00:41:29;12.66;97.24
65207;SHT31;58477;48.072;11.970;2023-05-10T00:43:55;12.67;97.06
65207;SHT31;58477;48.072;11.970;2023-05-10T00:46:20;12.60;97.41
65207;SHT31;58477;48.072;11.970;2023-05-10T00:48:46;12.62;97.03
65207;SHT31;58477;48.072;11.970;2023-05-10T00:51:13;12.52;97.31
65207;SHT31;58477;48.072;11.970;2023-05-10T00:53:38;12.49;97.78
65207;SHT31;58477;48.072;11.970;2023-05-10T00:56:04;12.50;97.56
65207;SHT31;58477;48.072;11.970;2023-05-10T00:58:30;12.42;97.60
65207;SHT31;58477;48.072;11.970;2023-05-10T01:00:56;12.42;97.71
65207;SHT31;58477;48.072;11.970;2023-05-10T01:03:22;12.38;98.15
65207;SHT31;58477;48.072;11.970;2023-05-10T01:05:47;12.39;97.66
65207;SHT31;58477;48.072;11.970;2023-05-10T01:08:13;12.39;97.78
65207;SHT31;58477;48.072;11.970;2023-05-10T01:10:39;12.42;97.40
65207;SHT31;58477;48.072;11.970;2023-05-10T01:13:04;12.38;97.52
65207;SHT31;58477;48.072;11.970;2023-05-10T01:15:30;12.34;97.98
65207;SHT31;58477;48.072;11.970;2023-05-10T01:17:56;12.36;98.05
65207;SHT31;58477;48.072;11.970;2023-05-10T01:20:23;12.35;97.98
65207;SHT31;58477;48.072;11.970;2023-05-10T01:23:14;12.35;97.86
65207;SHT31;58477;48.072;11.970;2023-05-10T01:33:59;12.28;98.39
65207;SHT31;58477;48.072;11.970;2023-05-10T01:36:32;12.26;98.38
65207;SHT31;58477;48.072;11.970;2023-05-10T01:39:13;12.31;98.62
65207;SHT31;58477;48.072;11.970;2023-05-10T01:42:23;12.25;98.52
65207;SHT31;58477;48.072;11.970;2023-05-10T01:45:18;12.28;98.24
65207;SHT31;58477;48.072;11.970;2023-05-10T01:47:50;12.21;97.95
65207;SHT31;58477;48.072;11.970;2023-05-10T01:50:22;12.24;98.19
65207;SHT31;58477;48.072;11.970;2023-05-10T01:52:53;12.22;98.19
65207;SHT31;58477;48.072;11.970;2023-05-10T01:55:20;12.15;97.65
65207;SHT31;58477;48.072;11.970;2023-05-10T01:57:47;12.17;97.93
65207;SHT31;58477;48.072;11.970;2023-05-10T02:00:15;12.17;98.32
65207;SHT31;58477;48.072;11.970;2023-05-10T02:02:44;12.15;97.90
65207;SHT31;58477;48.072;11.970;2023-05-10T02:05:12;12.14;98.04
65207;SHT31;58477;48.072;11.970;2023-05-10T02:07:39;12.12;98.23
65207;SHT31;58477;48.072;11.970;2023-05-10T02:10:07;12.11;98.12
65207;SHT31;58477;48.072;11.970;2023-05-10T02:12:36;12.11;98.17
65207;SHT31;58477;48.072;11.970;2023-05-10T02:15:03;12.10;98.22
65207;SHT31;58477;48.072;11.970;2023-05-10T02:17:31;12.12;98.31
65207;SHT31;58477;48.072;11.970;2023-05-10T02:19:58;12.14;98.04
65207;SHT31;58477;48.072;11.970;2023-05-10T02:22:27;12.14;98.14
65207;SHT31;58477;48.072;11.970;2023-05-10T02:24:55;12.15;98.33
65207;SHT31;58477;48.072;11.970;2023-05-10T02:27:23;12.12;97.89
65207;SHT31;58477;48.072;11.970;2023-05-10T02:29:49;12.12;98.45
65207;SHT31;58477;48.072;11.970;2023-05-10T02:32:17;12.10;98.33
65207;SHT31;58477;48.072;11.970;2023-05-10T02:34:44;12.11;98.36
65207;SHT31;58477;48.072;11.970;2023-05-10T02:37:13;12.12;98.28
65207;SHT31;58477;48.072;11.970;2023-05-10T02:39:40;12.11;98.41
65207;SHT31;58477;48.072;11.970;2023-05-10T02:42:16;12.11;98.50
65207;SHT31;58477;48.072;11.970;2023-05-10T02:44:43;12.08;98.77
65207;SHT31;58477;48.072;11.970;2023-05-10T02:47:08;12.06;98.57
65207;SHT31;58477;48.072;11.970;2023-05-10T02:49:34;12.02;98.71
65207;SHT31;58477;48.072;11.970;2023-05-10T02:52:01;12.06;98.54
65207;SHT31;58477;48.072;11.970;2023-05-10T02:54:32;12.06;98.26
65207;SHT31;58477;48.072;11.970;2023-05-10T02:57:00;12.08;98.43
65207;SHT31;58477;48.072;11.970;2023-05-10T02:59:27;12.12;98.28
65207;SHT31;58477;48.072;11.970;2023-05-10T03:01:52;12.10;98.33
65207;SHT31;58477;48.072;11.970;2023-05-10T03:04:17;12.11;98.49
65207;SHT31;58477;48.072;11.970;2023-05-10T03:06:43;12.08;98.68
65207;SHT31;58477;48.072;11.970;2023-05-10T03:09:10;12.04;98.74
65207;SHT31;58477;48.072;11.970;2023-05-10T03:11:53;12.06;98.59
65207;SHT31;58477;48.072;11.970;2023-05-10T03:17:23;12.04;98.53
65207;SHT31;58477;48.072;11.970;2023-05-10T03:19:57;12.08;98.78
65207;SHT31;58477;48.072;11.970;2023-05-10T03:22:30;11.99;98.84
65207;SHT31;58477;48.072;11.970;2023-05-10T03:24:57;12.04;98.63
65207;SHT31;58477;48.072;11.970;2023-05-10T03:27:26;11.99;98.72
65207;SHT31;58477;48.072;11.970;2023-05-10T03:29:54;11.99;98.77
65207;SHT31;58477;48.072;11.970;2023-05-10T03:32:21;12.01;98.49
65207;SHT31;58477;48.072;11.970;2023-05-10T03:34:47;11.98;98.95
65207;SHT31;58477;48.072;11.970;2023-05-10T03:37:13;11.98;98.50
65207;SHT31;58477;48.072;11.970;2023-05-10T03:39:39;11.99;98.57
65207;SHT31;58477;48.072;11.970;2023-05-10T03:42:07;11.95;98.54
65207;SHT31;58477;48.072;11.970;2023-05-10T03:44:32;11.97;98.42
65207;SHT31;58477;48.072;11.970;2023-05-10T03:46:58;11.94;98.67
65207;SHT31;58477;48.072;11.970;2023-05-10T03:49:24;11.99;98.53
65207;SHT31;58477;48.072;11.970;2023-05-10T03:51:50;12.01;98.67
65207;SHT31;58477;48.072;11.970;2023-05-10T03:54:15;12.01;98.32
65207;SHT31;58477;48.072;11.970;2023-05-10T03:56:41;11.97;98.32
65207;SHT31;58477;48.072;11.970;2023-05-10T03:59:06;11.95;98.74
65207;SHT31;58477;48.072;11.970;2023-05-10T04:01:35;11.97;98.88
65207;SHT31;58477;48.072;11.970;2023-05-10T04:04:00;11.98;98.49
65207;SHT31;58477;48.072;11.970;2023-05-10T04:06:26;11.98;98.63
65207;SHT31;58477;48.072;11.970;2023-05-10T04:08:51;11.98;98.49
65207;SHT31;58477;48.072;11.970;2023-05-10T04:11:17;11.94;98.83
65207;SHT31;58477;48.072;11.970;2023-05-10T04:13:42;11.97;98.62
65207;SHT31;58477;48.072;11.970;2023-05-10T04:16:08;11.98;98.77
65207;SHT31;58477;48.072;11.970;2023-05-10T04:18:34;12.01;98.24
65207;SHT31;58477;48.072;11.970;2023-05-10T04:21:00;11.99;98.62
65207;SHT31;58477;48.072;11.970;2023-05-10T04:23:26;12.04;98.24
65207;SHT31;58477;48.072;11.970;2023-05-10T04:25:52;11.99;98.66
65207;SHT31;58477;48.072;11.970;2023-05-10T04:28:17;11.99;98.87
65207;SHT31;58477;48.072;11.970;2023-05-10T04:30:43;12.01;98.48
65207;SHT31;58477;48.072;11.970;2023-05-10T04:33:08;11.98;98.25
65207;SHT31;58477;48.072;11.970;2023-05-10T04:35:34;12.02;98.82
65207;SHT31;58477;48.072;11.970;2023-05-10T04:38:00;11.98;98.40
65207;SHT31;58477;48.072;11.970;2023-05-10T04:40:25;12.05;98.54
65207;SHT31;58477;48.072;11.970;2023-05-10T04:42:51;12.05;98.38
65207;SHT31;58477;48.072;11.970;2023-05-10T04:45:16;12.04;98.27
65207;SHT31;58477;48.072;11.970;2023-05-10T04:47:42;12.12;98.49
65207;SHT31;58477;48.072;11.970;2023-05-10T04:50:07;12.11;98.08
65207;SHT31;58477;48.072;11.970;2023-05-10T04:52:33;12.11;98.29
65207;SHT31;58477;48.072;11.970;2023-05-10T04:54:58;12.14;98.35
65207;SHT31;58477;48.072;11.970;2023-05-10T04:57:24;12.17;98.33
65207;SHT31;58477;48.072;11.970;2023-05-10T04:59:49;12.10;98.23
65207;SHT31;58477;48.072;11.970;2023-05-10T05:02:15;12.14;98.18
65207;SHT31;58477;48.072;11.970;2023-05-10T05:04:40;12.17;98.45
65207;SHT31;58477;48.072;11.970;2023-05-10T05:07:06;12.15;98.09
65207;SHT31;58477;48.072;11.970;2023-05-10T05:09:31;12.21;97.92
65207;SHT31;58477;48.072;11.970;2023-05-10T05:11:59;12.17;97.90
65207;SHT31;58477;48.072;11.970;2023-05-10T05:14:25;12.14;98.19
65207;SHT31;58477;48.072;11.970;2023-05-10T05:16:53;12.17;98.25
65207;SHT31;58477;48.072;11.970;2023-05-10T05:19:19;12.14;98.42
65207;SHT31;58477;48.072;11.970;2023-05-10T05:21:44;12.15;98.57
65207;SHT31;58477;48.072;11.970;2023-05-10T05:24:10;12.14;98.51
65207;SHT31;58477;48.072;11.970;2023-05-10T05:26:36;12.25;98.48
65207;SHT31;58477;48.072;11.970;2023-05-10T05:29:02;12.17;97.80
65207;SHT31;58477;48.072;11.970;2023-05-10T05:31:28;12.29;97.77
65207;SHT31;58477;48.072;11.970;2023-05-10T05:33:53;12.28;97.53
65207;SHT31;58477;48.072;11.970;2023-05-10T05:36:19;12.28;97.70
65207;SHT31;58477;48.072;11.970;2023-05-10T05:38:44;12.29;96.77
65207;SHT31;58477;48.072;11.970;2023-05-10T05:41:10;12.24;97.59
65207;SHT31;58477;48.072;11.970;2023-05-10T05:43:35;12.20;97.20
65207;SHT31;58477;48.072;11.970;2023-05-10T05:46:00;12.15;97.52
65207;SHT31;58477;48.072;11.970;2023-05-10T05:48:26;12.06;97.07
65207;SHT31;58477;48.072;11.970;2023-05-10T05:50:55;12.02;97.81
65207;SHT31;58477;48.072;11.970;2023-05-10T05:53:21;11.91;98.42
65207;SHT31;58477;48.072;11.970;2023-05-10T05:55:54;11.85;98.23
65207;SHT31;58477;48.072;11.970;2023-05-10T05:58:20;11.90;98.69
65207;SHT31;58477;48.072;11.970;2023-05-10T06:00:46;11.75;97.90
65207;SHT31;58477;48.072;11.970;2023-05-10T06:03:11;11.75;97.77
65207;SHT31;58477;48.072;11.970;2023-05-10T06:05:37;11.81;97.72
65207;SHT31;58477;48.072;11.970;2023-05-10T06:08:03;11.84;97.42
65207;SHT31;58477;48.072;11.970;2023-05-10T06:10:28;11.80;97.52
65207;SHT31;58477;48.072;11.970;2023-05-10T06:12:53;11.81;97.05
65207;SHT31;58477;48.072;11.970;2023-05-10T06:15:19;11.82;97.43
65207;SHT31;58477;48.072;11.970;2023-05-10T06:17:44;11.61;96.23
65207;SHT31;58477;48.072;11.970;2023-05-10T06:20:11;11.58;96.90
65207;SHT31;58477;48.072;11.970;2023-05-10T06:22:36;11.56;95.99
65207;SHT31;58477;48.072;11.970;2023-05-10T06:25:02;11.47;96.06
65207;SHT31;58477;48.072;11.970;2023-05-10T06:27:27;11.43;97.20
65207;SHT31;58477;48.072;11.970;2023-05-10T06:29:53;11.57;97.05
65207;SHT31;58477;48.072;11.970;2023-05-10T06:32:18;11.44;96.76
65207;SHT31;58477;48.072;11.970;2023-05-10T06:34:43;11.46;96.91
65207;SHT31;58477;48.072;11.970;2023-05-10T06:37:09;11.44;97.26
65207;SHT31;58477;48.072;11.970;2023-05-10T06:39:35;11.44;97.39
65207;SHT31;58477;48.072;11.970;2023-05-10T06:42:01;11.46;97.02
65207;SHT31;58477;48.072;11.970;2023-05-10T06:44:31;11.51;96.91
65207;SHT31;58477;48.072;11.970;2023-05-10T06:46:57;11.43;97.18
65207;SHT31;58477;48.072;11.970;2023-05-10T06:49:22;11.53;96.87
65207;SHT31;58477;48.072;11.970;2023-05-10T06:51:47;11.51;97.45
65207;SHT31;58477;48.072;11.970;2023-05-10T06:54:13;11.68;96.78
65207;SHT31;58477;48.072;11.970;2023-05-10T06:56:39;11.85;96.82
65207;SHT31;58477;48.072;11.970;2023-05-10T06:59:04;11.95;96.30
65207;SHT31;58477;48.072;11.970;2023-05-10T07:01:30;12.17;96.27
65207;SHT31;58477;48.072;11.970;2023-05-10T07:03:55;12.05;95.24
65207;SHT31;58477;48.072;11.970;2023-05-10T07:06:20;12.08;95.60
65207;SHT31;58477;48.072;11.970;2023-05-10T07:08:46;12.15;95.88
65207;SHT31;58477;48.072;11.970;2023-05-10T07:11:11;12.43;96.32
65207;SHT31;58477;48.072;11.970;2023-05-10T07:13:37;12.50;95.13
65207;SHT31;58477;48.072;11.970;2023-05-10T07:16:04;12.73;95.12
65207;SHT31;58477;48.072;11.970;2023-05-10T07:18:31;12.97;94.80
65207;SHT31;58477;48.072;11.970;2023-05-10T07:20:57;13.02;94.17
65207;SHT31;58477;48.072;11.970;2023-05-10T07:23:23;13.02;93.49
65207;SHT31;58477;48.072;11.970;2023-05-10T07:25:49;12.97;93.35
65207;SHT31;58477;48.072;11.970;2023-05-10T07:28:17;12.95;93.81
65207;SHT31;58477;48.072;11.970;2023-05-10T07:30:43;13.10;93.56
65207;SHT31;58477;48.072;11.970;2023-05-10T07:33:10;12.72;93.83
65207;SHT31;58477;48.072;11.970;2023-05-10T07:35:36;13.24;94.43
65207;SHT31;58477;48.072;11.970;2023-05-10T07:38:02;13.79;93.07
65207;SHT31;58477;48.072;11.970;2023-05-10T07:40:28;14.12;91.10
65207;SHT31;58477;48.072;11.970;2023-05-10T07:42:54;14.60;89.49
65207;SHT31;58477;48.072;11.970;2023-05-10T07:45:19;14.70;89.36
65207;SHT31;58477;48.072;11.970;2023-05-10T07:47:45;14.76;89.32
65207;SHT31;58477;48.072;11.970;2023-05-10T07:50:10;14.94;88.30
65207;SHT31;58477;48.072;11.970;2023-05-10T07:52:36;15.84;86.93
65207;SHT31;58477;48.072;11.970;2023-05-10T07:55:01;15.74;85.84
65207;SHT31;58477;48.072;11.970;2023-05-10T07:57:27;15.98;86.09
65207;SHT31;58477;48.072;11.970;2023-05-10T07:59:52;15.51;86.75
65207;SHT31;58477;48.072;11.970;2023-05-10T08:02:18;15.48;86.72
65207;SHT31;58477;48.072;11.970;2023-05-10T08:04:43;14.62;87.47
65207;SHT31;58477;48.072;11.970;2023-05-10T08:07:09;14.09;89.17
65207;SHT31;58477;48.072;11.970;2023-05-10T08:09:34;13.89;90.19
65207;SHT31;58477;48.072;11.970;2023-05-10T08:11:59;13.43;91.83
65207;SHT31;58477;48.072;11.970;2023-05-10T08:14:26;13.27;93.47
65207;SHT31;58477;48.072;11.970;2023-05-10T08:16:52;13.11;94.34
65207;SHT31;58477;48.072;11.970;2023-05-10T08:19:17;13.40;91.83
65207;SHT31;58477;48.072;11.970;2023-05-10T08:21:45;14.35;91.89
65207;SHT31;58477;48.072;11.970;2023-05-10T08:24:10;15.41;90.32
65207;SHT31;58477;48.072;11.970;2023-05-10T08:26:36;16.04;85.60
65207;SHT31;58477;48.072;11.970;2023-05-10T08:29:02;16.46;86.73
65207;SHT31;58477;48.072;11.970;2023-05-10T08:31:27;16.87;83.50
65207;SHT31;58477;48.072;11.970;2023-05-10T08:33:52;16.59;84.50
65207;SHT31;58477;48.072;11.970;2023-05-10T08:36:18;15.78;84.02
65207;SHT31;58477;48.072;11.970;2023-05-10T08:38:49;15.67;85.35
65207;SHT31;58477;48.072;11.970;2023-05-10T08:41:15;15.16;87.03
65207;SHT31;58477;48.072;11.970;2023-05-10T08:43:41;14.72;89.67
65207;SHT31;58477;48.072;11.970;2023-05-10T08:46:15;14.29;88.53
65207;SHT31;58477;48.072;11.970;2023-05-10T08:48:44;13.72;90.22
65207;SHT31;58477;48.072;11.970;2023-05-10T08:51:15;13.74;90.51
65207;SHT31;58477;48.072;11.970;2023-05-10T08:53:43;13.60;90.23
65207;SHT31;58477;48.072;11.970;2023-05-10T08:56:09;13.31;89.05
65207;SHT31;58477;48.072;11.970;2023-05-10T08:58:35;13.75;89.44
65207;SHT31;58477;48.072;11.970;2023-05-10T09:01:02;14.39;88.80
65207;SHT31;58477;48.072;11.970;2023-05-10T09:03:28;14.65;87.28
65207;SHT31;58477;48.072;11.970;2023-05-10T09:05:53;15.11;87.41
65207;SHT31;58477;48.072;11.970;2023-05-10T09:08:21;15.27;85.85
65207;SHT31;58477;48.072;11.970;2023-05-10T09:10:50;15.08;86.00
65207;SHT31;58477;48.072;11.970;2023-05-10T09:13:16;15.30;85.48
65207;SHT31;58477;48.072;11.970;2023-05-10T09:15:44;15.81;84.83
65207;SHT31;58477;48.072;11.970;2023-05-10T09:18:09;16.19;85.64
65207;SHT31;58477;48.072;11.970;2023-05-10T09:20:34;17.37;81.83
65207;SHT31;58477;48.072;11.970;2023-05-10T09:23:00;17.58;82.09
65207;SHT31;58477;48.072;11.970;2023-05-10T09:25:25;18.10;79.05
65207;SHT31;58477;48.072;11.970;2023-05-10T09:27:52;18.23;79.49
65207;SHT31;58477;48.072;11.970;2023-05-10T09:32:49;17.06;81.05
65207;SHT31;58477;48.072;11.970;2023-05-10T09:35:23;16.90;81.31
65207;SHT31;58477;48.072;11.970;2023-05-10T09:37:51;16.33;83.29
65207;SHT31;58477;48.072;11.970;2023-05-10T09:40:23;16.28;83.80
65207;SHT31;58477;48.072;11.970;2023-05-10T09:43:00;16.04;83.22
65207;SHT31;58477;48.072;11.970;2023-05-10T09:45:30;16.43;85.41
65207;SHT31;58477;48.072;11.970;2023-05-10T09:47:57;16.53;82.64
65207;SHT31;58477;48.072;11.970;2023-05-10T09:50:23;16.55;80.57
65207;SHT31;58477;48.072;11.970;2023-05-10T09:53:02;16.49;81.81
65207;SHT31;58477;48.072;11.970;2023-05-10T09:55:43;16.84;79.04
65207;SHT31;58477;48.072;11.970;2023-05-10T09:58:14;16.45;81.21
65207;SHT31;58477;48.072;11.970;2023-05-10T10:00:42;16.84;79.40
65207;SHT31;58477;48.072;11.970;2023-05-10T10:03:15;16.50;80.79
65207;SHT31;58477;48.072;11.970;2023-05-10T10:05:42;16.02;81.16
65207;SHT31;58477;48.072;11.970;2023-05-10T10:08:09;15.81;82.89
65207;SHT31;58477;48.072;11.970;2023-05-10T10:10:34;16.20;83.80
65207;SHT31;58477;48.072;11.970;2023-05-10T10:13:00;16.28;83.30
65207;SHT31;58477;48.072;11.970;2023-05-10T10:15:26;16.29;83.70
65207;SHT31;58477;48.072;11.970;2023-05-10T10:17:52;16.18;81.17
65207;SHT31;58477;48.072;11.970;2023-05-10T10:20:20;16.45;81.53
65207;SHT31;58477;48.072;11.970;2023-05-10T10:22:46;16.53;81.93
65207;SHT31;58477;48.072;11.970;2023-05-10T10:25:13;17.04;81.54
65207;SHT31;58477;48.072;11.970;2023-05-10T10:31:11;15.61;84.97
65207;SHT31;58477;48.072;11.970;2023-05-10T10:33:40;15.08;86.10
65207;SHT31;58477;48.072;11.970;2023-05-10T10:36:08;14.01;85.79
65207;SHT31;58477;48.072;11.970;2023-05-10T10:39:01;13.67;87.87
65207;SHT31;58477;48.072;11.970;2023-05-10T10:41:27;13.30;87.62
65207;SHT31;58477;48.072;11.970;2023-05-10T10:49:24;13.41;91.15
65207;SHT31;58477;48.072;11.970;2023-05-10T10:52:15;13.51;89.97
65207;SHT31;58477;48.072;11.970;2023-05-10T10:54:41;13.47;90.65
65207;SHT31;58477;48.072;11.970;2023-05-10T10:57:14;13.70;90.38
65207;SHT31;58477;48.072;11.970;2023-05-10T10:59:43;13.91;89.75
65207;SHT31;58477;48.072;11.970;2023-05-10T11:02:09;13.79;87.70
65207;SHT31;58477;48.072;11.970;2023-05-10T11:04:42;14.02;88.98
65207;SHT31;58477;48.072;11.970;2023-05-10T11:07:18;14.19;89.13
65207;SHT31;58477;48.072;11.970;2023-05-10T11:09:46;14.40;87.57
65207;SHT31;58477;48.072;11.970;2023-05-10T11:12:12;14.66;87.54
65207;SHT31;58477;48.072;11.970;2023-05-10T11:14:37;14.84;86.65
65207;SHT31;58477;48.072;11.970;2023-05-10T11:17:22;15.01;85.23
65207;SHT31;58477;48.072;11.970;2023-05-10T11:20:07;15.16;83.67
65207;SHT31;58477;48.072;11.970;2023-05-10T11:22:50;15.62;84.00
65207;SHT31;58477;48.072;11.970;2023-05-10T11:25:17;15.97;84.03
65207;SHT31;58477;48.072;11.970;2023-05-10T11:27:42;16.20;82.24
65207;SHT31;58477;48.072;11.970;2023-05-10T11:30:10;16.64;84.13
65207;SHT31;58477;48.072;11.970;2023-05-10T11:32:38;17.28;81.37
65207;SHT31;58477;48.072;11.970;2023-05-10T11:35:08;17.10;78.78
65207;SHT31;58477;48.072;11.970;2023-05-10T11:37:33;17.28;79.94
65207;SHT31;58477;48.072;11.970;2023-05-10T11:39:59;16.52;82.36
65207;SHT31;58477;48.072;11.970;2023-05-10T11:42:25;16.15;80.89
65207;SHT31;58477;48.072;11.970;2023-05-10T11:44:52;15.43;83.45
65207;SHT31;58477;48.072;11.970;2023-05-10T11:47:17;15.11;85.28
65207;SHT31;58477;48.072;11.970;2023-05-10T11:49:44;14.93;85.82
65207;SHT31;58477;48.072;11.970;2023-05-10T11:52:10;14.81;85.25
65207;SHT31;58477;48.072;11.970;2023-05-10T11:54:36;14.60;87.11
65207;SHT31;58477;48.072;11.970;2023-05-10T11:57:03;14.60;86.58
65207;SHT31;58477;48.072;11.970;2023-05-10T11:59:28;14.43;87.68
65207;SHT31;58477;48.072;11.970;2023-05-10T12:01:54;14.50;87.52
65207;SHT31;58477;48.072;11.970;2023-05-10T12:04:19;14.59;87.26
65207;SHT31;58477;48.072;11.970;2023-05-10T12:06:45;14.66;87.51
65207;SHT31;58477;48.072;11.970;2023-05-10T12:09:11;14.58;87.17
65207;SHT31;58477;48.072;11.970;2023-05-10T12:11:39;14.65;87.40
65207;SHT31;58477;48.072;11.970;2023-05-10T12:14:08;14.52;86.54
65207;SHT31;58477;48.072;11.970;2023-05-10T12:16:35;14.63;86.27
65207;SHT31;58477;48.072;11.970;2023-05-10T12:19:00;14.73;86.16
65207;SHT31;58477;48.072;11.970;2023-05-10T12:21:28;14.84;85.93
65207;SHT31;58477;48.072;11.970;2023-05-10T12:23:56;14.96;85.67
65207;SHT31;58477;48.072;11.970;2023-05-10T12:26:25;14.56;88.16
65207;SHT31;58477;48.072;11.970;2023-05-10T12:29:01;14.22;88.60
65207;SHT31;58477;48.072;11.970;2023-05-10T12:31:52;13.78;90.72
65207;SHT31;58477;48.072;11.970;2023-05-10T12:34:33;13.43;90.14
65207;SHT31;58477;48.072;11.970;2023-05-10T12:36:58;12.92;90.33
65207;SHT31;58477;48.072;11.970;2023-05-10T12:39:25;12.22;91.30
65207;SHT31;58477;48.072;11.970;2023-05-10T12:41:51;11.91;93.06
65207;SHT31;58477;48.072;11.970;2023-05-10T12:44:17;11.70;94.42
65207;SHT31;58477;48.072;11.970;2023-05-10T12:46:43;11.61;95.53
65207;SHT31;58477;48.072;11.970;2023-05-10T12:49:08;11.53;95.86
65207;SHT31;58477;48.072;11.970;2023-05-10T12:51:33;11.47;96.71
65207;SHT31;58477;48.072;11.970;2023-05-10T12:53:59;11.36;97.46
65207;SHT31;58477;48.072;11.970;2023-05-10T12:56:24;11.36;97.32
65207;SHT31;58477;48.072;11.970;2023-05-10T12:58:50;11.40;97.37
65207;SHT31;58477;48.072;11.970;2023-05-10T13:01:16;11.41;97.14
65207;SHT31;58477;48.072;11.970;2023-05-10T13:03:41;11.47;97.18
65207;SHT31;58477;48.072;11.970;2023-05-10T13:06:08;11.58;97.15
65207;SHT31;58477;48.072;11.970;2023-05-10T13:08:33;11.57;96.15
65207;SHT31;58477;48.072;11.970;2023-05-10T13:11:00;11.70;97.27
65207;SHT31;58477;48.072;11.970;2023-05-10T13:13:26;11.71;97.08
65207;SHT31;58477;48.072;11.970;2023-05-10T13:15:51;11.67;96.48
65207;SHT31;58477;48.072;11.970;2023-05-10T13:18:17;11.82;97.14
65207;SHT31;58477;48.072;11.970;2023-05-10T13:20:42;11.74;96.83
65207;SHT31;58477;48.072;11.970;2023-05-10T13:23:09;11.78;96.73
65207;SHT31;58477;48.072;11.970;2023-05-10T13:25:35;11.91;97.09
65207;SHT31;58477;48.072;11.970;2023-05-10T13:28:01;11.73;96.70
65207;SHT31;58477;48.072;11.970;2023-05-10T13:30:26;11.81;96.21
65207;SHT31;58477;48.072;11.970;2023-05-10T13:32:52;11.85;95.89
65207;SHT31;58477;48.072;11.970;2023-05-10T13:35:17;11.81;96.01
65207;SHT31;58477;48.072;11.970;2023-05-10T13:37:42;11.85;96.44
65207;SHT31;58477;48.072;11.970;2023-05-10T13:40:08;11.77;95.83
65207;SHT31;58477;48.072;11.970;2023-05-10T13:42:34;11.90;95.89
65207;SHT31;58477;48.072;11.970;2023-05-10T13:45:00;12.10;95.73
65207;SHT31;58477;48.072;11.970;2023-05-10T13:47:27;12.05;95.04
65207;SHT31;58477;48.072;11.970;2023-05-10T13:49:52;12.14;95.34
65207;SHT31;58477;48.072;11.970;2023-05-10T13:52:18;12.06;94.81
65207;SHT31;58477;48.072;11.970;2023-05-10T13:54:44;12.05;94.01
65207;SHT31;58477;48.072;11.970;2023-05-10T13:57:09;12.12;94.79
65207;SHT31;58477;48.072;11.970;2023-05-10T13:59:37;12.31;94.42
65207;SHT31;58477;48.072;11.970;2023-05-10T14:02:02;12.22;94.66
65207;SHT31;58477;48.072;11.970;2023-05-10T14:04:28;12.52;95.12
65207;SHT31;58477;48.072;11.970;2023-05-10T14:06:54;12.55;93.46
65207;SHT31;58477;48.072;11.970;2023-05-10T14:09:19;12.60;93.34
65207;SHT31;58477;48.072;11.970;2023-05-10T14:11:45;12.46;93.48
65207;SHT31;58477;48.072;11.970;2023-05-10T14:14:11;12.45;93.93
65207;SHT31;58477;48.072;11.970;2023-05-10T14:16:36;12.42;93.56
65207;SHT31;58477;48.072;11.970;2023-05-10T14:19:02;12.29;94.02
65207;SHT31;58477;48.072;11.970;2023-05-10T14:21:28;12.35;94.16
65207;SHT31;58477;48.072;11.970;2023-05-10T14:23:56;12.18;94.39
65207;SHT31;58477;48.072;11.970;2023-05-10T14:26:22;12.32;95.49
65207;SHT31;58477;48.072;11.970;2023-05-10T14:28:47;12.43;94.98
65207;SHT31;58477;48.072;11.970;2023-05-10T14:31:13;12.56;95.30
65207;SHT31;58477;48.072;11.970;2023-05-10T14:33:39;12.63;95.11
65207;SHT31;58477;48.072;11.970;2023-05-10T14:36:06;12.62;94.70
65207;SHT31;58477;48.072;11.970;2023-05-10T14:38:31;12.63;93.80
65207;SHT31;58477;48.072;11.970;2023-05-10T14:40:57;12.62;94.63
65207;SHT31;58477;48.072;11.970;2023-05-10T14:43:23;12.79;94.58
65207;SHT31;58477;48.072;11.970;2023-05-10T14:45:48;12.65;93.84
65207;SHT31;58477;48.072;11.970;2023-05-10T14:48:13;12.62;94.39
65207;SHT31;58477;48.072;11.970;2023-05-10T14:50:42;12.60;93.76
65207;SHT31;58477;48.072;11.970;2023-05-10T14:53:08;12.59;93.21
65207;SHT31;58477;48.072;11.970;2023-05-10T14:55:34;12.39;93.38
65207;SHT31;58477;48.072;11.970;2023-05-10T14:58:01;12.22;93.87
65207;SHT31;58477;48.072;11.970;2023-05-10T15:00:28;12.28;94.72
65207;SHT31;58477;48.072;11.970;2023-05-10T15:02:54;12.32;94.62
65207;SHT31;58477;48.072;11.970;2023-05-10T15:05:19;12.11;92.97
65207;SHT31;58477;48.072;11.970;2023-05-10T15:07:45;12.06;92.77
65207;SHT31;58477;48.072;11.970;2023-05-10T15:10:11;12.14;94.14
65207;SHT31;58477;48.072;11.970;2023-05-10T15:12:37;12.01;94.19
65207;SHT31;58477;48.072;11.970;2023-05-10T15:15:03;12.06;94.94
65207;SHT31;58477;48.072;11.970;2023-05-10T15:17:29;11.92;93.86
65207;SHT31;58477;48.072;11.970;2023-05-10T15:19:54;11.77;94.34
65207;SHT31;58477;48.072;11.970;2023-05-10T15:22:19;11.73;95.42
65207;SHT31;58477;48.072;11.970;2023-05-10T15:24:46;11.73;95.07
65207;SHT31;58477;48.072;11.970;2023-05-10T15:27:11;11.81;96.29
65207;SHT31;58477;48.072;11.970;2023-05-10T15:29:37;12.01;95.77
65207;SHT31;58477;48.072;11.970;2023-05-10T15:32:03;12.06;95.63
65207;SHT31;58477;48.072;11.970;2023-05-10T15:34:28;12.22;95.71
65207;SHT31;58477;48.072;11.970;2023-05-10T15:36:54;12.15;95.79